createdAt,value
2019-03-12T00:01:53.169Z,96430.00
2019-03-12T00:04:25.021Z,96421.00
2019-03-12T00:06:57.112Z,96417.00
2019-03-12T00:09:29.267Z,96422.00
2019-03-12T00:12:01.055Z,96420.00
2019-03-12T00:14:32.918Z,96412.00
2019-03-12T00:17:04.679Z,96416.00
2019-03-12T00:19:36.816Z,96419.00
2019-03-12T00:22:08.894Z,96419.00
2019-03-12T00:24:41.159Z,96433.00
2019-03-12T00:27:13.520Z,96446.00
2019-03-12T00:29:45.453Z,96449.00
2019-03-12T00:32:17.626Z,96456.00
2019-03-12T00:34:49.842Z,96461.00
2019-03-12T00:37:21.639Z,96464.00
2019-03-12T00:39:53.458Z,96466.00
2019-03-12T00:42:25.524Z,96472.00
2019-03-12T00:44:57.352Z,96474.00
2019-03-12T00:47:29.762Z,96473.00
2019-03-12T00:50:01.868Z,96463.00
2019-03-12T00:52:33.678Z,96464.00
2019-03-12T00:55:05.549Z,96475.00
2019-03-12T00:57:37.456Z,96464.00
2019-03-12T01:00:12.519Z,96466.00
2019-03-12T01:02:44.424Z,96473.00
2019-03-12T01:05:16.359Z,96458.00
2019-03-12T01:07:48.596Z,96460.00
2019-03-12T01:10:20.789Z,96462.00
2019-03-12T01:12:52.578Z,96447.00
2019-03-12T01:15:24.698Z,96449.00
2019-03-12T01:17:56.494Z,96453.00
2019-03-12T01:20:28.350Z,96442.00
2019-03-12T01:23:00.406Z,96442.00
2019-03-12T01:25:32.532Z,96447.00
2019-03-12T01:28:04.340Z,96436.00
2019-03-12T01:30:36.194Z,96441.00
2019-03-12T01:33:07.991Z,96439.00
2019-03-12T01:35:39.831Z,96444.00
2019-03-12T01:38:11.613Z,96443.00
2019-03-12T01:40:43.492Z,96446.00
2019-03-12T01:43:15.289Z,96451.00
2019-03-12T01:45:47.136Z,96451.00
2019-03-12T01:48:19.215Z,96449.00
2019-03-12T01:50:51.311Z,96460.00
2019-03-12T01:53:23.381Z,96466.00
2019-03-12T01:55:55.528Z,96460.00
2019-03-12T01:58:27.322Z,96464.00
2019-03-12T02:00:59.444Z,96463.00
2019-03-12T02:03:31.575Z,96460.00
2019-03-12T02:06:03.458Z,96464.00
2019-03-12T02:08:35.285Z,96466.00
2019-03-12T02:11:07.076Z,96462.00
2019-03-12T02:13:38.934Z,96463.00
2019-03-12T02:16:10.725Z,96479.00
2019-03-12T02:18:43.401Z,96490.00
2019-03-12T02:21:15.501Z,96485.00
2019-03-12T02:23:47.337Z,96488.00
2019-03-12T02:26:19.428Z,96494.00
2019-03-12T02:28:51.250Z,96490.00
2019-03-12T02:31:23.041Z,96496.00
2019-03-12T02:33:54.879Z,96488.00
2019-03-12T02:36:26.679Z,96493.00
2019-03-12T02:38:58.490Z,96497.00
2019-03-12T02:41:30.295Z,96496.00
2019-03-12T02:44:02.392Z,96499.00
2019-03-12T02:46:34.194Z,96498.00
2019-03-12T02:49:09.427Z,96508.00
2019-03-12T02:51:39.755Z,96509.00
2019-03-12T02:54:11.570Z,96504.00
2019-03-12T02:56:43.360Z,96504.00
2019-03-12T02:59:15.219Z,96498.00
2019-03-12T03:01:47.357Z,96494.00
2019-03-12T03:04:19.183Z,96498.00
2019-03-12T03:06:58.314Z,96496.00
2019-03-12T03:09:30.178Z,96502.00
2019-03-12T03:12:01.969Z,96495.00
2019-03-12T03:14:40.092Z,96501.00
2019-03-12T03:17:15.504Z,96507.00
2019-03-12T03:19:47.370Z,96510.00
2019-03-12T03:22:19.164Z,96512.00
2019-03-12T03:24:51.408Z,96498.00
2019-03-12T03:27:23.235Z,96512.00
2019-03-12T03:29:55.056Z,96511.00
2019-03-12T03:32:26.891Z,96513.00
2019-03-12T03:34:58.749Z,96516.00
2019-03-12T03:37:30.846Z,96525.00
2019-03-12T03:40:02.728Z,96523.00
2019-03-12T03:42:34.516Z,96523.00
2019-03-12T03:45:06.737Z,96520.00
2019-03-12T03:47:38.517Z,96512.00
2019-03-12T03:50:10.747Z,96513.00
2019-03-12T03:52:42.951Z,96512.00
2019-03-12T03:55:16.486Z,96512.00
2019-03-12T03:57:48.599Z,96515.00
2019-03-12T04:00:21.731Z,96525.00
2019-03-12T04:02:53.604Z,96522.00
2019-03-12T04:05:25.843Z,96527.00
2019-03-12T04:07:57.636Z,96527.00
2019-03-12T04:10:29.913Z,96520.00
2019-03-12T04:13:01.850Z,96534.00
2019-03-12T04:15:33.624Z,96537.00
2019-03-12T04:18:05.405Z,96534.00
2019-03-12T04:20:37.905Z,96523.00
2019-03-12T04:23:09.988Z,96532.00
2019-03-12T04:25:41.825Z,96522.00
2019-03-12T04:28:13.627Z,96532.00
2019-03-12T04:30:45.899Z,96520.00
2019-03-12T04:34:07.889Z,96533.00
2019-03-12T04:36:39.761Z,96526.00
2019-03-12T04:39:12.201Z,96538.00
2019-03-12T04:41:44.047Z,96549.00
2019-03-12T04:44:15.827Z,96553.00
2019-03-12T04:46:48.047Z,96559.00
2019-03-12T04:49:19.946Z,96554.00
2019-03-12T04:51:51.782Z,96556.00
2019-03-12T04:54:23.568Z,96560.00
2019-03-12T04:56:55.427Z,96561.00
2019-03-12T04:59:27.223Z,96563.00
2019-03-12T05:01:59.191Z,96563.00
2019-03-12T05:04:30.982Z,96561.00
2019-03-12T05:07:02.914Z,96560.00
2019-03-12T05:09:34.703Z,96563.00
2019-03-12T05:12:06.655Z,96558.00
2019-03-12T05:14:41.738Z,96560.00
2019-03-12T05:17:28.664Z,96557.00
2019-03-12T05:20:00.498Z,96555.00
2019-03-12T05:22:32.325Z,96558.00
2019-03-12T05:25:04.225Z,96560.00
2019-03-12T05:27:36.349Z,96549.00
2019-03-12T05:30:12.109Z,96551.00
2019-03-12T05:32:43.951Z,96549.00
2019-03-12T05:35:16.119Z,96546.00
2019-03-12T05:37:47.971Z,96544.00
2019-03-12T05:40:20.114Z,96547.00
2019-03-12T05:42:51.953Z,96546.00
2019-03-12T05:45:23.754Z,96539.00
2019-03-12T05:47:55.591Z,96541.00
2019-03-12T05:50:27.742Z,96540.00
2019-03-12T05:53:13.441Z,96531.00
2019-03-12T05:55:45.415Z,96541.00
2019-03-12T05:58:17.242Z,96535.00
2019-03-12T06:00:49.050Z,96540.00
2019-03-12T06:03:21.182Z,96532.00
2019-03-12T06:05:52.975Z,96539.00
2019-03-12T06:08:24.817Z,96539.00
2019-03-12T06:10:57.137Z,96544.00
2019-03-12T06:13:29.349Z,96537.00
2019-03-12T06:16:01.147Z,96541.00
2019-03-12T06:18:32.990Z,96529.00
2019-03-12T06:21:04.839Z,96521.00
2019-03-12T06:23:36.926Z,96525.00
2019-03-12T06:26:08.732Z,96522.00
2019-03-12T06:28:40.561Z,96525.00
2019-03-12T06:31:30.173Z,96520.00
2019-03-12T06:34:08.984Z,96523.00
2019-03-12T06:36:54.014Z,96522.00
2019-03-12T06:39:47.572Z,96526.00
2019-03-12T06:42:30.955Z,96525.00
2019-03-12T06:45:27.857Z,96522.00
2019-03-12T06:48:12.568Z,96523.00
2019-03-12T06:50:57.538Z,96514.00
2019-03-12T06:53:40.873Z,96513.00
2019-03-12T06:56:23.386Z,96522.00
2019-03-12T06:59:12.508Z,96525.00
2019-03-12T07:01:54.537Z,96527.00
2019-03-12T07:04:57.143Z,96522.00
2019-03-12T07:08:06.201Z,96509.00
2019-03-12T07:10:55.564Z,96507.00
2019-03-12T07:13:49.631Z,96506.00
2019-03-12T07:16:35.582Z,96496.00
2019-03-12T07:19:29.350Z,96496.00
2019-03-12T07:22:32.144Z,96497.00
2019-03-12T07:25:09.195Z,96492.00
2019-03-12T07:28:18.427Z,96488.00
2019-03-12T07:31:08.451Z,96484.00
2019-03-12T07:33:53.518Z,96480.00
2019-03-12T07:36:39.786Z,96468.00
2019-03-12T07:39:24.480Z,96485.00
2019-03-12T07:42:07.878Z,96467.00
2019-03-12T07:45:01.659Z,96462.00
2019-03-12T07:47:47.948Z,96455.00
2019-03-12T07:50:57.094Z,96451.00
2019-03-12T07:53:42.675Z,96449.00
2019-03-12T07:56:45.188Z,96448.00
2019-03-12T07:59:36.240Z,96455.00
2019-03-12T08:02:29.619Z,96448.00
2019-03-12T08:05:20.385Z,96449.00
2019-03-12T08:08:20.365Z,96448.00
2019-03-12T08:11:14.057Z,96447.00
2019-03-12T08:14:00.586Z,96438.00
2019-03-12T08:16:51.671Z,96439.00
2019-03-12T08:19:51.715Z,96439.00
2019-03-12T08:22:36.400Z,96437.00
2019-03-12T08:25:26.566Z,96418.00
2019-03-12T08:28:20.501Z,96416.00
2019-03-12T08:31:20.493Z,96423.00
2019-03-12T08:34:09.693Z,96420.00
2019-03-12T08:37:00.821Z,96410.00
2019-03-12T08:39:51.553Z,96409.00
2019-03-12T08:42:54.638Z,96402.00
2019-03-12T08:45:48.923Z,96384.00
2019-03-12T08:48:45.333Z,96390.00
2019-03-12T08:51:41.867Z,96387.00
2019-03-12T08:54:39.905Z,96385.00
2019-03-12T08:57:31.006Z,96379.00
2019-03-12T09:00:20.420Z,96370.00
2019-03-12T09:03:20.307Z,96357.00
2019-03-12T09:05:59.845Z,96355.00
2019-03-12T09:08:53.437Z,96357.00
2019-03-12T09:11:47.034Z,96357.00
2019-03-12T09:14:30.451Z,96345.00
2019-03-12T09:17:12.103Z,96338.00
2019-03-12T09:20:05.980Z,96333.00
2019-03-12T09:22:43.263Z,96337.00
2019-03-12T09:25:49.708Z,96335.00
2019-03-12T09:28:42.177Z,96325.00
2019-03-12T09:31:39.202Z,96323.00
2019-03-12T09:34:22.968Z,96324.00
2019-03-12T09:37:04.587Z,96316.00
2019-03-12T09:40:01.263Z,96306.00
2019-03-12T09:42:50.697Z,96309.00
2019-03-12T09:45:41.432Z,96296.00
2019-03-12T09:48:30.856Z,96292.00
2019-03-12T09:51:08.182Z,96289.00
2019-03-12T09:54:05.154Z,96280.00
2019-03-12T09:56:46.189Z,96279.00
2019-03-12T09:59:25.587Z,96271.00
2019-03-12T10:02:15.346Z,96267.00
2019-03-12T10:05:15.396Z,96261.00
2019-03-12T10:08:24.280Z,96254.00
2019-03-12T10:11:23.890Z,96252.00
2019-03-12T10:14:17.717Z,96236.00
2019-03-12T10:17:07.406Z,96221.00
2019-03-12T10:19:48.178Z,96218.00
2019-03-12T10:22:37.816Z,96222.00
2019-03-12T10:25:31.734Z,96216.00
2019-03-12T10:28:31.681Z,96227.00
2019-03-12T10:31:14.297Z,96215.00
2019-03-12T10:33:59.831Z,96213.00
2019-03-12T10:36:37.686Z,96204.00
2019-03-12T10:40:03.331Z,96208.00
2019-03-12T10:42:59.866Z,96213.00
2019-03-12T10:45:35.940Z,96189.00
2019-03-12T10:48:07.834Z,96184.00
2019-03-12T10:50:39.687Z,96176.00
2019-03-12T10:53:11.499Z,96188.00
2019-03-12T10:55:43.352Z,96183.00
2019-03-12T10:58:15.155Z,96180.00
2019-03-12T11:00:47.354Z,96158.00
2019-03-12T11:03:19.437Z,96173.00
2019-03-12T11:05:51.551Z,96162.00
2019-03-12T11:08:23.346Z,96142.00
2019-03-12T11:10:55.190Z,96142.00
2019-03-12T11:13:27.040Z,96154.00
2019-03-12T11:15:59.224Z,96142.00
2019-03-12T11:18:31.044Z,96145.00
2019-03-12T11:21:02.923Z,96139.00
2019-03-12T11:23:34.791Z,96133.00
2019-03-12T11:26:06.661Z,96131.00
2019-03-12T11:28:38.461Z,96123.00
2019-03-12T11:31:10.586Z,96126.00
2019-03-12T11:33:42.474Z,96119.00
2019-03-12T11:36:14.420Z,96108.00
2019-03-12T11:38:46.671Z,96106.00
2019-03-12T11:41:18.852Z,96113.00
2019-03-12T11:43:50.748Z,96094.00
2019-03-12T11:46:22.565Z,96084.00
2019-03-12T11:48:55.252Z,96087.00
2019-03-12T11:51:27.114Z,96098.00
2019-03-12T11:53:58.987Z,96087.00
2019-03-12T11:56:30.826Z,95998.00
2019-03-12T11:59:02.752Z,96077.00
2019-03-12T12:01:35.074Z,96068.00
2019-03-12T12:04:06.873Z,96068.00
2019-03-12T12:06:42.453Z,96038.00
2019-03-12T12:09:13.766Z,96042.00
2019-03-12T12:11:45.582Z,96047.00
2019-03-12T12:14:17.382Z,96043.00
2019-03-12T12:16:49.248Z,96032.00
2019-03-12T12:19:21.034Z,96032.00
2019-03-12T12:21:53.353Z,96026.00
2019-03-12T12:24:26.673Z,96024.00
2019-03-12T12:26:58.651Z,96028.00
2019-03-12T12:29:30.445Z,96007.00
2019-03-12T12:32:02.301Z,96000.00
2019-03-12T12:34:34.099Z,95985.00
2019-03-12T12:37:06.572Z,95986.00
2019-03-12T12:39:38.614Z,95970.00
2019-03-12T12:42:10.807Z,95956.00
2019-03-12T12:44:43.048Z,95959.00
2019-03-12T12:47:15.599Z,95959.00
2019-03-12T12:49:47.685Z,95954.00
2019-03-12T12:52:19.565Z,95947.00
2019-03-12T12:54:51.816Z,95952.00
2019-03-12T12:57:23.962Z,95929.00
2019-03-12T12:59:55.774Z,95916.00
2019-03-12T13:02:27.641Z,95899.00
2019-03-12T13:04:59.525Z,95901.00
2019-03-12T13:07:31.821Z,95889.00
2019-03-12T13:10:04.062Z,95882.00
2019-03-12T13:12:36.512Z,95879.00
2019-03-12T13:15:09.547Z,95873.00
2019-03-12T13:17:41.752Z,95865.00
2019-03-12T13:20:14.313Z,95870.00
2019-03-12T13:22:46.483Z,95859.00
2019-03-12T13:25:18.326Z,95864.00
2019-03-12T13:27:50.168Z,95861.00
2019-03-12T13:30:22.166Z,95857.00
2019-03-12T13:32:54.068Z,95859.00
2019-03-12T13:35:26.456Z,95852.00
2019-03-12T13:37:58.324Z,95842.00
2019-03-12T13:40:30.433Z,95829.00
2019-03-12T13:43:02.285Z,95846.00
2019-03-12T13:45:34.412Z,95809.00
2019-03-12T13:48:06.338Z,95814.00
2019-03-12T13:50:38.502Z,95802.00
2019-03-12T13:53:10.470Z,95807.00
2019-03-12T13:55:42.981Z,95801.00
2019-03-12T13:58:14.842Z,95804.00
2019-03-12T14:00:46.651Z,95807.00
2019-03-12T14:03:18.699Z,95814.00
2019-03-12T14:05:50.854Z,95798.00
2019-03-12T14:08:22.693Z,95801.00
2019-03-12T14:10:54.486Z,95794.00
2019-03-12T14:13:26.320Z,95793.00
2019-03-12T14:15:58.122Z,95795.00
2019-03-12T14:18:31.173Z,95789.00
2019-03-12T14:21:11.078Z,95775.00
2019-03-12T14:23:54.174Z,95770.00
2019-03-12T14:26:26.320Z,95759.00
2019-03-12T14:28:58.157Z,95745.00
2019-03-12T14:31:30.235Z,95748.00
2019-03-12T14:34:02.089Z,95743.00
2019-03-12T14:36:34.385Z,95740.00
2019-03-12T14:39:08.080Z,95734.00
2019-03-12T14:41:39.907Z,95732.00
2019-03-12T14:44:11.927Z,95719.00
2019-03-12T14:46:43.791Z,95711.00
2019-03-12T14:49:18.326Z,95699.00
2019-03-12T14:52:23.500Z,95693.00
2019-03-12T14:54:55.350Z,95686.00
2019-03-12T14:57:27.398Z,95685.00
2019-03-12T14:59:59.407Z,95669.00
2019-03-12T15:02:34.225Z,95656.00
2019-03-12T15:05:07.320Z,95648.00
2019-03-12T15:07:39.776Z,95641.00
2019-03-12T15:10:12.350Z,95634.00
2019-03-12T15:12:44.205Z,95628.00
2019-03-12T15:15:16.193Z,95622.00
2019-03-12T15:17:48.350Z,95613.00
2019-03-12T15:20:20.253Z,95611.00
2019-03-12T15:22:52.054Z,95601.00
2019-03-12T15:25:23.897Z,95595.00
2019-03-12T15:27:55.722Z,95585.00
2019-03-12T15:30:27.601Z,95576.00
2019-03-12T15:32:59.416Z,95573.00
2019-03-12T15:35:31.377Z,95561.00
2019-03-12T15:38:03.186Z,95562.00
2019-03-12T15:40:35.099Z,95553.00
2019-03-12T15:43:06.910Z,95550.00
2019-03-12T15:45:38.811Z,95544.00
2019-03-12T15:48:10.690Z,95530.00
2019-03-12T15:50:42.574Z,95537.00
2019-03-12T15:53:14.979Z,95542.00
2019-03-12T15:55:47.005Z,95513.00
2019-03-12T15:58:18.807Z,95525.00
2019-03-12T16:00:50.673Z,95512.00
2019-03-12T16:03:22.832Z,95501.00
2019-03-12T16:05:54.882Z,95501.00
2019-03-12T16:08:26.780Z,95497.00
2019-03-12T16:10:58.814Z,95486.00
2019-03-12T16:13:30.635Z,95481.00
2019-03-12T16:16:03.388Z,95470.00
2019-03-12T16:18:35.608Z,95470.00
2019-03-12T16:21:07.923Z,95470.00
2019-03-12T16:23:39.755Z,95461.00
2019-03-12T16:26:11.940Z,95465.00
2019-03-12T16:28:44.018Z,95452.00
2019-03-12T16:31:16.189Z,95447.00
2019-03-12T16:33:48.275Z,95440.00
2019-03-12T16:36:20.117Z,95430.00
2019-03-12T16:38:51.946Z,95432.00
2019-03-12T16:41:23.803Z,95429.00
2019-03-12T16:43:55.917Z,95420.00
2019-03-12T16:46:28.089Z,95410.00
2019-03-12T16:49:00.252Z,95416.00
2019-03-12T16:51:32.086Z,95421.00
2019-03-12T16:54:05.373Z,95422.00
2019-03-12T16:56:45.118Z,95411.00
2019-03-12T16:59:11.316Z,95403.00
2019-03-12T17:01:43.121Z,95405.00
2019-03-12T17:04:14.965Z,95391.00
2019-03-12T17:06:46.772Z,95394.00
2019-03-12T17:09:18.605Z,95393.00
2019-03-12T17:11:50.706Z,95389.00
2019-03-12T17:14:22.554Z,95396.00
2019-03-12T17:16:54.363Z,95373.00
2019-03-12T17:19:26.566Z,95358.00
2019-03-12T17:21:58.794Z,95355.00
2019-03-12T17:24:30.980Z,95347.00
2019-03-12T17:27:02.873Z,95351.00
2019-03-12T17:29:35.125Z,95349.00
2019-03-12T17:32:06.978Z,95355.00
2019-03-12T17:34:38.887Z,95344.00
2019-03-12T17:37:10.762Z,95338.00
2019-03-12T17:39:42.660Z,95335.00
2019-03-12T17:42:14.551Z,95329.00
2019-03-12T17:44:46.395Z,95328.00
2019-03-12T17:47:18.505Z,95323.00
2019-03-12T17:49:50.511Z,95326.00
2019-03-12T17:52:22.409Z,95317.00
2019-03-12T17:54:54.263Z,95311.00
2019-03-12T17:57:26.200Z,95304.00
2019-03-12T17:59:58.045Z,95305.00
2019-03-12T18:02:41.917Z,95308.00
2019-03-12T18:05:03.540Z,95304.00
2019-03-12T18:07:35.350Z,95295.00
2019-03-12T18:10:07.862Z,95287.00
2019-03-12T18:12:39.695Z,95303.00
2019-03-12T18:15:14.291Z,95292.00
2019-03-12T18:17:46.103Z,95290.00
2019-03-12T18:20:18.027Z,95280.00
2019-03-12T18:22:49.986Z,95268.00
2019-03-12T18:25:25.152Z,95268.00
2019-03-12T18:27:56.974Z,95268.00
2019-03-12T18:30:29.136Z,95274.00
2019-03-12T18:33:01.844Z,95262.00
2019-03-12T18:35:34.143Z,95256.00
2019-03-12T18:38:05.950Z,95252.00
2019-03-12T18:40:37.890Z,95233.00
2019-03-12T18:43:09.952Z,95228.00
2019-03-12T18:45:41.923Z,95229.00
2019-03-12T18:48:13.990Z,95211.00
2019-03-12T18:50:46.235Z,95220.00
2019-03-12T18:53:18.067Z,95213.00
2019-03-12T18:56:07.970Z,95209.00
2019-03-12T18:58:40.069Z,95189.00
2019-03-12T19:01:16.367Z,95207.00
2019-03-12T19:03:48.166Z,95206.00
2019-03-12T19:06:21.603Z,95214.00
2019-03-12T19:08:53.784Z,95189.00
2019-03-12T19:11:25.647Z,95188.00
2019-03-12T19:13:57.822Z,95192.00
2019-03-12T19:16:30.219Z,95185.00
2019-03-12T19:19:02.128Z,95177.00
2019-03-12T19:21:34.002Z,95174.00
2019-03-12T19:24:05.939Z,95162.00
2019-03-12T19:26:38.274Z,95155.00
2019-03-12T19:29:10.157Z,95157.00
2019-03-12T19:32:07.704Z,95141.00
2019-03-12T19:34:39.919Z,95152.00
2019-03-12T19:37:12.025Z,95142.00
2019-03-12T19:39:43.953Z,95134.00
2019-03-12T19:42:16.150Z,95130.00
2019-03-12T19:44:48.245Z,95125.00
2019-03-12T19:47:20.725Z,95118.00
2019-03-12T19:49:52.751Z,95109.00
2019-03-12T19:52:24.812Z,95101.00
2019-03-12T19:54:56.992Z,95083.00
2019-03-12T19:57:28.907Z,95078.00
2019-03-12T20:00:01.124Z,95074.00
2019-03-12T20:02:33.802Z,95073.00
2019-03-12T20:05:07.354Z,95084.00
2019-03-12T20:07:39.234Z,95082.00
2019-03-12T20:11:40.682Z,95081.00
2019-03-12T20:15:16.853Z,95083.00
2019-03-12T20:18:56.538Z,95070.00
2019-03-12T20:22:55.765Z,95077.00
2019-03-12T20:26:14.304Z,95074.00
2019-03-12T20:29:39.899Z,95077.00
2019-03-12T20:32:48.706Z,95070.00
2019-03-12T20:36:33.154Z,95061.00
2019-03-12T20:40:00.173Z,95052.00
2019-03-12T20:43:46.049Z,95037.00
2019-03-12T20:47:27.863Z,95025.00
2019-03-12T20:50:57.153Z,95021.00
2019-03-12T20:54:17.903Z,95016.00
2019-03-12T20:57:47.829Z,95003.00
2019-03-12T21:01:15.427Z,94986.00
2019-03-12T21:04:35.735Z,94988.00
2019-03-12T21:08:38.541Z,94969.00
2019-03-12T21:12:09.437Z,94960.00
2019-03-12T21:15:59.864Z,94948.00
2019-03-12T21:19:49.569Z,94939.00
2019-03-12T21:23:19.955Z,94930.00
2019-03-12T21:27:03.957Z,94922.00
2019-03-12T21:29:50.430Z,94910.00
2019-03-12T21:32:22.451Z,94901.00
2019-03-12T21:34:54.767Z,94893.00
2019-03-12T21:37:26.582Z,94902.00
2019-03-12T21:39:58.505Z,94899.00
2019-03-12T21:42:30.717Z,94888.00
2019-03-12T21:45:03.350Z,94885.00
2019-03-12T21:47:36.239Z,94876.00
2019-03-12T21:50:08.564Z,94869.00
2019-03-12T21:52:40.401Z,94866.00
2019-03-12T21:55:12.672Z,94861.00
2019-03-12T21:57:44.489Z,94863.00
2019-03-12T22:00:17.159Z,94856.00
2019-03-12T22:02:49.579Z,94848.00
2019-03-12T22:05:21.733Z,94844.00
2019-03-12T22:07:53.553Z,94843.00
2019-03-12T22:10:25.516Z,94826.00
2019-03-12T22:12:57.343Z,94831.00
2019-03-12T22:15:30.331Z,94822.00
2019-03-12T22:18:02.149Z,94806.00
2019-03-12T22:20:34.052Z,94813.00
2019-03-12T22:23:34.179Z,94805.00
2019-03-12T22:26:05.997Z,94797.00
2019-03-12T22:28:38.075Z,94789.00
2019-03-12T22:31:09.931Z,94776.00
2019-03-12T22:33:42.008Z,94768.00
2019-03-12T22:36:13.939Z,94761.00
2019-03-12T22:38:45.744Z,94762.00
2019-03-12T22:41:17.942Z,94762.00
2019-03-12T22:43:49.861Z,94745.00
2019-03-12T22:46:21.735Z,94741.00
2019-03-12T22:48:53.975Z,94739.00
2019-03-12T22:51:25.839Z,94735.00
2019-03-12T22:53:57.643Z,94738.00
2019-03-12T22:56:29.612Z,94729.00
2019-03-12T22:59:01.422Z,94734.00
2019-03-12T23:01:33.262Z,94736.00
2019-03-12T23:04:05.350Z,94732.00
2019-03-12T23:06:37.506Z,94723.00
2019-03-12T23:09:09.315Z,94727.00
2019-03-12T23:11:41.155Z,94717.00
2019-03-12T23:14:12.955Z,94736.00
2019-03-12T23:16:44.866Z,94726.00
2019-03-12T23:19:16.655Z,94716.00
2019-03-12T23:21:48.536Z,94707.00
2019-03-12T23:24:20.349Z,94711.00
2019-03-12T23:26:52.430Z,94714.00
2019-03-12T23:29:24.351Z,94705.00
2019-03-12T23:31:56.190Z,94709.00
2019-03-12T23:34:27.998Z,94707.00
2019-03-12T23:36:59.976Z,94703.00
2019-03-12T23:39:31.766Z,94700.00
2019-03-12T23:42:03.603Z,94698.00
2019-03-12T23:44:35.386Z,94700.00
2019-03-12T23:47:07.272Z,94703.00
2019-03-12T23:49:39.067Z,94715.00
2019-03-12T23:52:10.930Z,94717.00
2019-03-12T23:54:43.036Z,94721.00
2019-03-12T23:57:15.290Z,94729.00
2019-03-12T23:59:47.094Z,94734.00
